sensor_id;sensor_type;location;lat;lon;timestamp;temperature;humidity
53045;DHT22;38930;52.766;6.884;2023-04-25T00:01:17;6.50;99.90
53045;DHT22;38930;52.766;6.884;2023-04-25T00:03:42;6.50;99.90
53045;DHT22;38930;52.766;6.884;2023-04-25T00:06:08;6.40;99.90
53045;DHT22;38930;52.766;6.884;2023-04-25T00:08:34;6.40;99.90
53045;DHT22;38930;52.766;6.884;2023-04-25T00:11:00;6.30;99.90
53045;DHT22;38930;52.766;6.884;2023-04-25T00:13:26;6.40;99.90
53045;DHT22;38930;52.766;6.884;2023-04-25T00:15:52;6.40;99.90
53045;DHT22;38930;52.766;6.884;2023-04-25T00:18:22;6.40;99.90
53045;DHT22;38930;52.766;6.884;2023-04-25T00:20:48;6.40;99.90
53045;DHT22;38930;52.766;6.884;2023-04-25T00:23:14;6.40;99.90
53045;DHT22;38930;52.766;6.884;2023-04-25T00:25:47;6.40;99.90
53045;DHT22;38930;52.766;6.884;2023-04-25T00:28:13;6.40;99.90
53045;DHT22;38930;52.766;6.884;2023-04-25T00:30:40;7.30;99.90
53045;DHT22;38930;52.766;6.884;2023-04-25T00:33:07;6.40;99.90
53045;DHT22;38930;52.766;6.884;2023-04-25T00:35:33;6.30;99.90
53045;DHT22;38930;52.766;6.884;2023-04-25T00:37:58;7.40;99.90
53045;DHT22;38930;52.766;6.884;2023-04-25T00:40:24;6.30;99.90
53045;DHT22;38930;52.766;6.884;2023-04-25T00:42:51;6.30;99.90
53045;DHT22;38930;52.766;6.884;2023-04-25T00:45:17;6.20;99.90
53045;DHT22;38930;52.766;6.884;2023-04-25T00:47:43;6.10;99.90
53045;DHT22;38930;52.766;6.884;2023-04-25T00:50:10;6.10;99.90
53045;DHT22;38930;52.766;6.884;2023-04-25T00:52:37;6.00;99.90
53045;DHT22;38930;52.766;6.884;2023-04-25T00:55:03;6.00;99.90
53045;DHT22;38930;52.766;6.884;2023-04-25T00:57:29;5.90;99.90
53045;DHT22;38930;52.766;6.884;2023-04-25T00:59:55;5.90;99.90
53045;DHT22;38930;52.766;6.884;2023-04-25T01:02:21;5.80;99.90
53045;DHT22;38930;52.766;6.884;2023-04-25T01:04:48;6.20;99.90
53045;DHT22;38930;52.766;6.884;2023-04-25T01:07:14;6.60;99.90
53045;DHT22;38930;52.766;6.884;2023-04-25T01:09:40;5.70;99.90
53045;DHT22;38930;52.766;6.884;2023-04-25T01:12:06;5.70;99.90
53045;DHT22;38930;52.766;6.884;2023-04-25T01:14:32;5.70;99.90
53045;DHT22;38930;52.766;6.884;2023-04-25T01:16:59;5.70;99.90
53045;DHT22;38930;52.766;6.884;2023-04-25T01:19:25;5.70;99.90
53045;DHT22;38930;52.766;6.884;2023-04-25T01:21:51;5.70;99.90
53045;DHT22;38930;52.766;6.884;2023-04-25T01:24:17;5.70;99.90
53045;DHT22;38930;52.766;6.884;2023-04-25T01:26:42;5.70;99.90
53045;DHT22;38930;52.766;6.884;2023-04-25T01:29:19;8.00;99.90
53045;DHT22;38930;52.766;6.884;2023-04-25T01:31:45;6.40;99.90
53045;DHT22;38930;52.766;6.884;2023-04-25T01:34:11;5.70;99.90
53045;DHT22;38930;52.766;6.884;2023-04-25T01:36:37;5.70;99.90
53045;DHT22;38930;52.766;6.884;2023-04-25T01:39:03;5.60;99.90
53045;DHT22;38930;52.766;6.884;2023-04-25T01:41:29;5.80;99.90
53045;DHT22;38930;52.766;6.884;2023-04-25T01:43:55;5.60;99.90
53045;DHT22;38930;52.766;6.884;2023-04-25T01:46:21;5.50;99.90
53045;DHT22;38930;52.766;6.884;2023-04-25T01:48:47;5.50;99.90
53045;DHT22;38930;52.766;6.884;2023-04-25T01:51:13;5.40;99.90
53045;DHT22;38930;52.766;6.884;2023-04-25T01:53:39;5.40;99.90
53045;DHT22;38930;52.766;6.884;2023-04-25T01:56:05;5.40;99.90
53045;DHT22;38930;52.766;6.884;2023-04-25T01:58:31;5.40;99.90
53045;DHT22;38930;52.766;6.884;2023-04-25T02:00:57;5.30;99.90
53045;DHT22;38930;52.766;6.884;2023-04-25T02:03:22;5.40;99.90
53045;DHT22;38930;52.766;6.884;2023-04-25T02:05:48;5.30;99.90
53045;DHT22;38930;52.766;6.884;2023-04-25T02:08:14;5.30;99.90
53045;DHT22;38930;52.766;6.884;2023-04-25T02:10:39;5.30;99.90
53045;DHT22;38930;52.766;6.884;2023-04-25T02:13:05;6.40;99.90
53045;DHT22;38930;52.766;6.884;2023-04-25T02:15:31;5.30;99.90
53045;DHT22;38930;52.766;6.884;2023-04-25T02:17:57;5.30;99.90
53045;DHT22;38930;52.766;6.884;2023-04-25T02:20:24;5.30;99.90
53045;DHT22;38930;52.766;6.884;2023-04-25T02:22:50;5.30;99.90
53045;DHT22;38930;52.766;6.884;2023-04-25T02:25:17;5.30;99.90
53045;DHT22;38930;52.766;6.884;2023-04-25T02:27:43;5.30;99.90
53045;DHT22;38930;52.766;6.884;2023-04-25T02:30:09;6.10;99.90
53045;DHT22;38930;52.766;6.884;2023-04-25T02:32:35;5.30;99.90
53045;DHT22;38930;52.766;6.884;2023-04-25T02:35:01;5.40;99.90
53045;DHT22;38930;52.766;6.884;2023-04-25T02:37:30;5.40;99.90
53045;DHT22;38930;52.766;6.884;2023-04-25T02:39:56;5.30;99.90
53045;DHT22;38930;52.766;6.884;2023-04-25T02:42:21;5.40;99.90
53045;DHT22;38930;52.766;6.884;2023-04-25T02:44:47;5.70;99.90
53045;DHT22;38930;52.766;6.884;2023-04-25T02:47:12;5.40;99.90
53045;DHT22;38930;52.766;6.884;2023-04-25T02:49:38;5.40;99.90
53045;DHT22;38930;52.766;6.884;2023-04-25T02:52:04;5.40;99.90
53045;DHT22;38930;52.766;6.884;2023-04-25T02:54:30;6.00;99.90
53045;DHT22;38930;52.766;6.884;2023-04-25T02:56:55;5.40;99.90
53045;DHT22;38930;52.766;6.884;2023-04-25T02:59:21;5.40;99.90
53045;DHT22;38930;52.766;6.884;2023-04-25T03:01:47;5.40;99.90
53045;DHT22;38930;52.766;6.884;2023-04-25T03:04:12;5.40;99.90
53045;DHT22;38930;52.766;6.884;2023-04-25T03:06:38;5.40;99.90
53045;DHT22;38930;52.766;6.884;2023-04-25T03:09:03;7.50;99.90
53045;DHT22;38930;52.766;6.884;2023-04-25T03:11:29;5.40;99.90
53045;DHT22;38930;52.766;6.884;2023-04-25T03:13:57;5.50;99.90
53045;DHT22;38930;52.766;6.884;2023-04-25T03:16:23;5.80;99.90
53045;DHT22;38930;52.766;6.884;2023-04-25T03:18:49;5.40;99.90
53045;DHT22;38930;52.766;6.884;2023-04-25T03:21:16;5.50;99.90
53045;DHT22;38930;52.766;6.884;2023-04-25T03:23:42;5.40;99.90
53045;DHT22;38930;52.766;6.884;2023-04-25T03:26:07;6.10;99.90
53045;DHT22;38930;52.766;6.884;2023-04-25T03:28:33;5.40;99.90
53045;DHT22;38930;52.766;6.884;2023-04-25T03:30:58;5.40;99.90
53045;DHT22;38930;52.766;6.884;2023-04-25T03:33:24;5.40;99.90
53045;DHT22;38930;52.766;6.884;2023-04-25T03:35:49;5.40;99.90
53045;DHT22;38930;52.766;6.884;2023-04-25T03:38:15;5.40;99.90
53045;DHT22;38930;52.766;6.884;2023-04-25T03:40:41;5.40;99.90
53045;DHT22;38930;52.766;6.884;2023-04-25T03:43:06;5.40;99.90
53045;DHT22;38930;52.766;6.884;2023-04-25T03:45:32;5.40;99.90
53045;DHT22;38930;52.766;6.884;2023-04-25T03:47:58;5.40;99.90
53045;DHT22;38930;52.766;6.884;2023-04-25T03:50:24;5.40;99.90
53045;DHT22;38930;52.766;6.884;2023-04-25T03:52:49;5.60;99.90
53045;DHT22;38930;52.766;6.884;2023-04-25T03:55:15;6.20;99.90
53045;DHT22;38930;52.766;6.884;2023-04-25T03:57:41;5.40;99.90
53045;DHT22;38930;52.766;6.884;2023-04-25T04:00:07;6.00;99.90
53045;DHT22;38930;52.766;6.884;2023-04-25T04:02:33;5.30;99.90
53045;DHT22;38930;52.766;6.884;2023-04-25T04:05:00;5.40;99.90
53045;DHT22;38930;52.766;6.884;2023-04-25T04:07:26;5.30;99.90
53045;DHT22;38930;52.766;6.884;2023-04-25T04:09:51;5.30;99.90
53045;DHT22;38930;52.766;6.884;2023-04-25T04:12:17;5.30;99.90
53045;DHT22;38930;52.766;6.884;2023-04-25T04:14:43;5.30;99.90
53045;DHT22;38930;52.766;6.884;2023-04-25T04:17:08;5.30;99.90
53045;DHT22;38930;52.766;6.884;2023-04-25T04:19:34;5.30;99.90
53045;DHT22;38930;52.766;6.884;2023-04-25T04:22:00;5.50;99.90
53045;DHT22;38930;52.766;6.884;2023-04-25T04:24:26;5.30;99.90
53045;DHT22;38930;52.766;6.884;2023-04-25T04:26:51;5.30;99.90
53045;DHT22;38930;52.766;6.884;2023-04-25T04:29:17;5.20;99.90
53045;DHT22;38930;52.766;6.884;2023-04-25T04:31:49;5.20;99.90
53045;DHT22;38930;52.766;6.884;2023-04-25T04:34:16;5.20;99.90
53045;DHT22;38930;52.766;6.884;2023-04-25T04:39:11;5.20;99.90
53045;DHT22;38930;52.766;6.884;2023-04-25T04:41:37;5.20;99.90
53045;DHT22;38930;52.766;6.884;2023-04-25T04:44:03;5.20;99.90
53045;DHT22;38930;52.766;6.884;2023-04-25T04:46:29;5.10;99.90
53045;DHT22;38930;52.766;6.884;2023-04-25T04:48:57;5.20;99.90
53045;DHT22;38930;52.766;6.884;2023-04-25T04:51:24;5.10;99.90
53045;DHT22;38930;52.766;6.884;2023-04-25T04:53:49;5.20;99.90
53045;DHT22;38930;52.766;6.884;2023-04-25T04:56:15;5.20;99.90
53045;DHT22;38930;52.766;6.884;2023-04-25T04:58:41;5.20;99.90
53045;DHT22;38930;52.766;6.884;2023-04-25T05:01:06;5.20;99.90
53045;DHT22;38930;52.766;6.884;2023-04-25T05:03:32;5.20;99.90
53045;DHT22;38930;52.766;6.884;2023-04-25T05:05:58;5.20;99.90
53045;DHT22;38930;52.766;6.884;2023-04-25T05:08:24;6.20;99.90
53045;DHT22;38930;52.766;6.884;2023-04-25T05:10:49;5.40;99.90
53045;DHT22;38930;52.766;6.884;2023-04-25T05:13:15;5.60;99.90
53045;DHT22;38930;52.766;6.884;2023-04-25T05:15:41;5.60;99.90
53045;DHT22;38930;52.766;6.884;2023-04-25T05:18:06;5.60;99.90
53045;DHT22;38930;52.766;6.884;2023-04-25T05:20:32;5.70;99.90
53045;DHT22;38930;52.766;6.884;2023-04-25T05:22:57;5.60;99.90
53045;DHT22;38930;52.766;6.884;2023-04-25T05:25:23;6.00;99.90
53045;DHT22;38930;52.766;6.884;2023-04-25T05:27:49;5.60;99.90
53045;DHT22;38930;52.766;6.884;2023-04-25T05:30:16;5.60;99.90
53045;DHT22;38930;52.766;6.884;2023-04-25T05:32:42;5.60;99.90
53045;DHT22;38930;52.766;6.884;2023-04-25T05:35:08;5.60;99.90
53045;DHT22;38930;52.766;6.884;2023-04-25T05:37:34;5.60;99.90
53045;DHT22;38930;52.766;6.884;2023-04-25T05:39:59;5.70;99.90
53045;DHT22;38930;52.766;6.884;2023-04-25T05:42:25;5.60;99.90
53045;DHT22;38930;52.766;6.884;2023-04-25T05:44:51;6.10;99.90
53045;DHT22;38930;52.766;6.884;2023-04-25T05:47:17;5.80;99.90
53045;DHT22;38930;52.766;6.884;2023-04-25T05:49:42;5.60;99.90
53045;DHT22;38930;52.766;6.884;2023-04-25T05:52:08;5.60;99.90
53045;DHT22;38930;52.766;6.884;2023-04-25T05:54:33;5.70;99.90
53045;DHT22;38930;52.766;6.884;2023-04-25T05:56:59;5.70;99.90
53045;DHT22;38930;52.766;6.884;2023-04-25T05:59:25;5.70;99.90
53045;DHT22;38930;52.766;6.884;2023-04-25T06:01:51;5.80;99.90
53045;DHT22;38930;52.766;6.884;2023-04-25T06:04:17;5.80;99.90
53045;DHT22;38930;52.766;6.884;2023-04-25T06:06:42;5.90;99.90
53045;DHT22;38930;52.766;6.884;2023-04-25T06:09:08;5.90;99.90
53045;DHT22;38930;52.766;6.884;2023-04-25T06:11:33;6.00;99.90
53045;DHT22;38930;52.766;6.884;2023-04-25T06:13:59;6.20;99.90
53045;DHT22;38930;52.766;6.884;2023-04-25T06:16:25;6.30;99.90
53045;DHT22;38930;52.766;6.884;2023-04-25T06:18:54;6.50;99.90
53045;DHT22;38930;52.766;6.884;2023-04-25T06:21:20;6.60;99.90
53045;DHT22;38930;52.766;6.884;2023-04-25T06:23:46;6.70;99.90
53045;DHT22;38930;52.766;6.884;2023-04-25T06:26:11;6.70;99.90
53045;DHT22;38930;52.766;6.884;2023-04-25T06:28:37;6.80;99.90
53045;DHT22;38930;52.766;6.884;2023-04-25T06:31:03;6.80;99.90
53045;DHT22;38930;52.766;6.884;2023-04-25T06:33:28;6.80;99.90
53045;DHT22;38930;52.766;6.884;2023-04-25T06:35:54;6.80;99.90
53045;DHT22;38930;52.766;6.884;2023-04-25T06:38:19;6.90;99.90
53045;DHT22;38930;52.766;6.884;2023-04-25T06:40:45;7.00;99.90
53045;DHT22;38930;52.766;6.884;2023-04-25T06:43:11;7.20;99.90
53045;DHT22;38930;52.766;6.884;2023-04-25T06:45:36;7.40;99.90
53045;DHT22;38930;52.766;6.884;2023-04-25T06:48:02;7.50;99.90
53045;DHT22;38930;52.766;6.884;2023-04-25T06:50:28;7.50;99.90
53045;DHT22;38930;52.766;6.884;2023-04-25T06:52:53;7.50;99.90
53045;DHT22;38930;52.766;6.884;2023-04-25T06:55:19;7.50;99.90
53045;DHT22;38930;52.766;6.884;2023-04-25T06:57:45;7.50;99.90
53045;DHT22;38930;52.766;6.884;2023-04-25T07:00:11;7.40;99.90
53045;DHT22;38930;52.766;6.884;2023-04-25T07:02:36;7.40;99.90
53045;DHT22;38930;52.766;6.884;2023-04-25T07:05:03;7.50;99.90
53045;DHT22;38930;52.766;6.884;2023-04-25T07:07:29;7.70;99.90
53045;DHT22;38930;52.766;6.884;2023-04-25T07:09:55;7.90;99.90
53045;DHT22;38930;52.766;6.884;2023-04-25T07:12:21;7.80;99.90
53045;DHT22;38930;52.766;6.884;2023-04-25T07:14:47;7.90;99.90
53045;DHT22;38930;52.766;6.884;2023-04-25T07:17:12;8.00;99.90
53045;DHT22;38930;52.766;6.884;2023-04-25T07:19:38;8.00;99.90
53045;DHT22;38930;52.766;6.884;2023-04-25T07:22:05;8.70;99.90
53045;DHT22;38930;52.766;6.884;2023-04-25T07:24:31;8.60;99.90
53045;DHT22;38930;52.766;6.884;2023-04-25T07:26:57;9.30;99.90
53045;DHT22;38930;52.766;6.884;2023-04-25T07:29:23;8.70;99.90
53045;DHT22;38930;52.766;6.884;2023-04-25T07:31:49;9.00;99.90
53045;DHT22;38930;52.766;6.884;2023-04-25T07:34:14;8.50;99.90
53045;DHT22;38930;52.766;6.884;2023-04-25T07:36:41;8.50;99.90
53045;DHT22;38930;52.766;6.884;2023-04-25T07:39:06;8.40;99.90
53045;DHT22;38930;52.766;6.884;2023-04-25T07:41:34;8.60;99.90
53045;DHT22;38930;52.766;6.884;2023-04-25T07:44:00;8.50;99.90
53045;DHT22;38930;52.766;6.884;2023-04-25T07:46:25;8.60;99.90
53045;DHT22;38930;52.766;6.884;2023-04-25T07:48:51;8.70;99.90
53045;DHT22;38930;52.766;6.884;2023-04-25T07:51:17;8.70;99.90
53045;DHT22;38930;52.766;6.884;2023-04-25T07:53:45;8.90;99.90
53045;DHT22;38930;52.766;6.884;2023-04-25T07:56:11;8.80;99.90
53045;DHT22;38930;52.766;6.884;2023-04-25T07:58:37;9.30;99.90
53045;DHT22;38930;52.766;6.884;2023-04-25T08:01:02;8.60;99.90
53045;DHT22;38930;52.766;6.884;2023-04-25T08:03:28;8.70;99.90
53045;DHT22;38930;52.766;6.884;2023-04-25T08:05:54;9.60;99.90
53045;DHT22;38930;52.766;6.884;2023-04-25T08:08:19;8.90;99.90
53045;DHT22;38930;52.766;6.884;2023-04-25T08:10:45;9.00;99.90
53045;DHT22;38930;52.766;6.884;2023-04-25T08:13:10;9.20;99.90
53045;DHT22;38930;52.766;6.884;2023-04-25T08:15:36;9.40;99.90
53045;DHT22;38930;52.766;6.884;2023-04-25T08:18:02;9.60;99.90
53045;DHT22;38930;52.766;6.884;2023-04-25T08:20:27;9.60;99.90
53045;DHT22;38930;52.766;6.884;2023-04-25T08:22:53;9.50;99.90
53045;DHT22;38930;52.766;6.884;2023-04-25T08:25:19;9.40;99.90
53045;DHT22;38930;52.766;6.884;2023-04-25T08:27:45;9.50;99.90
53045;DHT22;38930;52.766;6.884;2023-04-25T08:30:10;9.40;99.90
53045;DHT22;38930;52.766;6.884;2023-04-25T08:32:36;9.50;99.90
53045;DHT22;38930;52.766;6.884;2023-04-25T08:35:04;10.10;99.90
53045;DHT22;38930;52.766;6.884;2023-04-25T08:37:30;9.70;99.90
53045;DHT22;38930;52.766;6.884;2023-04-25T08:39:56;9.80;99.90
53045;DHT22;38930;52.766;6.884;2023-04-25T08:42:22;9.60;99.90
53045;DHT22;38930;52.766;6.884;2023-04-25T08:44:48;10.30;99.90
53045;DHT22;38930;52.766;6.884;2023-04-25T08:47:14;9.30;99.90
53045;DHT22;38930;52.766;6.884;2023-04-25T08:49:45;9.20;99.90
53045;DHT22;38930;52.766;6.884;2023-04-25T08:52:13;9.00;99.90
53045;DHT22;38930;52.766;6.884;2023-04-25T08:54:42;8.70;99.90
53045;DHT22;38930;52.766;6.884;2023-04-25T08:57:10;8.40;99.90
53045;DHT22;38930;52.766;6.884;2023-04-25T08:59:37;8.70;99.90
53045;DHT22;38930;52.766;6.884;2023-04-25T09:02:04;8.10;99.90
53045;DHT22;38930;52.766;6.884;2023-04-25T09:04:33;8.00;99.90
53045;DHT22;38930;52.766;6.884;2023-04-25T09:06:58;8.10;99.90
53045;DHT22;38930;52.766;6.884;2023-04-25T09:09:24;8.20;99.90
53045;DHT22;38930;52.766;6.884;2023-04-25T09:11:50;8.40;99.90
53045;DHT22;38930;52.766;6.884;2023-04-25T09:14:23;8.50;99.90
53045;DHT22;38930;52.766;6.884;2023-04-25T09:19:24;9.10;99.90
53045;DHT22;38930;52.766;6.884;2023-04-25T09:21:51;9.20;99.90
53045;DHT22;38930;52.766;6.884;2023-04-25T09:24:38;10.00;99.90
53045;DHT22;38930;52.766;6.884;2023-04-25T09:27:11;9.60;99.90
53045;DHT22;38930;52.766;6.884;2023-04-25T09:29:39;9.60;99.90
53045;DHT22;38930;52.766;6.884;2023-04-25T09:32:22;9.40;99.90
53045;DHT22;38930;52.766;6.884;2023-04-25T09:34:55;9.30;99.90
53045;DHT22;38930;52.766;6.884;2023-04-25T09:37:23;9.50;99.90
53045;DHT22;38930;52.766;6.884;2023-04-25T09:39:59;9.60;99.90
53045;DHT22;38930;52.766;6.884;2023-04-25T09:42:29;9.70;99.90
53045;DHT22;38930;52.766;6.884;2023-04-25T09:44:57;9.80;99.90
53045;DHT22;38930;52.766;6.884;2023-04-25T09:47:25;10.00;99.90
53045;DHT22;38930;52.766;6.884;2023-04-25T09:49:51;9.90;99.90
53045;DHT22;38930;52.766;6.884;2023-04-25T09:52:19;9.80;99.90
53045;DHT22;38930;52.766;6.884;2023-04-25T09:54:46;9.50;99.90
53045;DHT22;38930;52.766;6.884;2023-04-25T09:59:41;9.00;99.90
53045;DHT22;38930;52.766;6.884;2023-04-25T10:02:07;8.80;99.90
53045;DHT22;38930;52.766;6.884;2023-04-25T10:04:35;8.60;99.90
53045;DHT22;38930;52.766;6.884;2023-04-25T10:07:03;8.70;99.90
53045;DHT22;38930;52.766;6.884;2023-04-25T10:09:31;8.50;99.90
53045;DHT22;38930;52.766;6.884;2023-04-25T10:12:00;9.00;99.90
53045;DHT22;38930;52.766;6.884;2023-04-25T10:14:26;8.90;99.90
53045;DHT22;38930;52.766;6.884;2023-04-25T10:16:53;9.20;99.90
53045;DHT22;38930;52.766;6.884;2023-04-25T10:19:22;9.50;99.90
53045;DHT22;38930;52.766;6.884;2023-04-25T10:22:29;9.70;99.90
53045;DHT22;38930;52.766;6.884;2023-04-25T10:24:56;9.80;99.90
53045;DHT22;38930;52.766;6.884;2023-04-25T10:27:22;10.00;99.90
53045;DHT22;38930;52.766;6.884;2023-04-25T10:30:02;10.30;99.90
53045;DHT22;38930;52.766;6.884;2023-04-25T10:32:30;10.30;99.90
53045;DHT22;38930;52.766;6.884;2023-04-25T10:34:56;10.60;99.90
53045;DHT22;38930;52.766;6.884;2023-04-25T10:37:22;10.80;99.90
53045;DHT22;38930;52.766;6.884;2023-04-25T10:39:49;11.00;99.90
53045;DHT22;38930;52.766;6.884;2023-04-25T10:42:14;11.00;99.90
53045;DHT22;38930;52.766;6.884;2023-04-25T10:44:40;10.40;99.90
53045;DHT22;38930;52.766;6.884;2023-04-25T10:47:07;9.90;99.90
53045;DHT22;38930;52.766;6.884;2023-04-25T10:49:38;9.40;99.90
53045;DHT22;38930;52.766;6.884;2023-04-25T10:55:02;8.90;99.90
53045;DHT22;38930;52.766;6.884;2023-04-25T10:57:40;8.80;99.90
53045;DHT22;38930;52.766;6.884;2023-04-25T11:02:56;9.20;99.90
53045;DHT22;38930;52.766;6.884;2023-04-25T11:05:34;9.50;99.90
53045;DHT22;38930;52.766;6.884;2023-04-25T11:08:00;9.70;99.90
53045;DHT22;38930;52.766;6.884;2023-04-25T11:10:32;9.90;99.90
53045;DHT22;38930;52.766;6.884;2023-04-25T11:13:01;10.00;99.90
53045;DHT22;38930;52.766;6.884;2023-04-25T11:15:27;9.90;99.90
53045;DHT22;38930;52.766;6.884;2023-04-25T11:17:53;10.00;99.90
53045;DHT22;38930;52.766;6.884;2023-04-25T11:20:19;10.30;99.90
53045;DHT22;38930;52.766;6.884;2023-04-25T11:22:46;10.30;99.90
53045;DHT22;38930;52.766;6.884;2023-04-25T11:25:13;10.50;99.90
53045;DHT22;38930;52.766;6.884;2023-04-25T11:27:53;10.50;99.90
53045;DHT22;38930;52.766;6.884;2023-04-25T11:30:20;10.40;99.90
53045;DHT22;38930;52.766;6.884;2023-04-25T11:32:46;10.20;99.90
53045;DHT22;38930;52.766;6.884;2023-04-25T11:35:12;9.90;99.90
53045;DHT22;38930;52.766;6.884;2023-04-25T11:37:42;9.80;99.90
53045;DHT22;38930;52.766;6.884;2023-04-25T11:40:09;9.80;99.90
53045;DHT22;38930;52.766;6.884;2023-04-25T11:42:53;9.90;99.90
53045;DHT22;38930;52.766;6.884;2023-04-25T11:45:19;10.10;99.90
53045;DHT22;38930;52.766;6.884;2023-04-25T11:47:45;9.90;99.90
53045;DHT22;38930;52.766;6.884;2023-04-25T11:50:11;9.50;99.90
53045;DHT22;38930;52.766;6.884;2023-04-25T11:52:45;9.50;99.90
53045;DHT22;38930;52.766;6.884;2023-04-25T11:55:15;8.50;99.90
53045;DHT22;38930;52.766;6.884;2023-04-25T11:57:42;8.40;99.90
53045;DHT22;38930;52.766;6.884;2023-04-25T12:00:16;8.30;99.90
53045;DHT22;38930;52.766;6.884;2023-04-25T12:02:53;8.40;99.90
53045;DHT22;38930;52.766;6.884;2023-04-25T12:05:19;8.90;99.90
53045;DHT22;38930;52.766;6.884;2023-04-25T12:07:46;8.70;99.90
53045;DHT22;38930;52.766;6.884;2023-04-25T12:10:13;9.10;99.90
53045;DHT22;38930;52.766;6.884;2023-04-25T12:12:44;9.60;99.90
53045;DHT22;38930;52.766;6.884;2023-04-25T12:15:18;9.90;99.90
53045;DHT22;38930;52.766;6.884;2023-04-25T12:17:48;10.30;99.90
53045;DHT22;38930;52.766;6.884;2023-04-25T12:20:18;10.60;99.90
53045;DHT22;38930;52.766;6.884;2023-04-25T12:22:46;11.40;99.90
53045;DHT22;38930;52.766;6.884;2023-04-25T12:25:13;10.80;99.90
53045;DHT22;38930;52.766;6.884;2023-04-25T12:27:39;10.80;99.90
53045;DHT22;38930;52.766;6.884;2023-04-25T12:30:07;10.80;99.90
53045;DHT22;38930;52.766;6.884;2023-04-25T12:32:33;10.70;99.90
53045;DHT22;38930;52.766;6.884;2023-04-25T12:34:59;10.70;99.90
53045;DHT22;38930;52.766;6.884;2023-04-25T12:37:24;10.60;99.90
53045;DHT22;38930;52.766;6.884;2023-04-25T12:39:50;10.80;99.90
53045;DHT22;38930;52.766;6.884;2023-04-25T12:42:16;11.00;99.90
53045;DHT22;38930;52.766;6.884;2023-04-25T12:44:41;11.40;99.90
53045;DHT22;38930;52.766;6.884;2023-04-25T12:47:07;11.30;99.90
53045;DHT22;38930;52.766;6.884;2023-04-25T12:49:33;11.80;99.90
53045;DHT22;38930;52.766;6.884;2023-04-25T12:51:58;12.00;99.90
53045;DHT22;38930;52.766;6.884;2023-04-25T12:54:24;12.00;99.90
53045;DHT22;38930;52.766;6.884;2023-04-25T12:56:51;12.40;99.90
53045;DHT22;38930;52.766;6.884;2023-04-25T12:59:17;12.20;99.90
53045;DHT22;38930;52.766;6.884;2023-04-25T13:01:42;12.00;99.90
53045;DHT22;38930;52.766;6.884;2023-04-25T13:04:09;11.70;99.90
53045;DHT22;38930;52.766;6.884;2023-04-25T13:06:35;11.70;99.90
53045;DHT22;38930;52.766;6.884;2023-04-25T13:09:01;10.90;99.90
53045;DHT22;38930;52.766;6.884;2023-04-25T13:11:27;10.70;99.90
53045;DHT22;38930;52.766;6.884;2023-04-25T13:13:52;10.60;99.90
53045;DHT22;38930;52.766;6.884;2023-04-25T13:16:18;10.70;99.90
53045;DHT22;38930;52.766;6.884;2023-04-25T13:18:46;10.50;99.90
53045;DHT22;38930;52.766;6.884;2023-04-25T13:21:11;10.30;99.90
53045;DHT22;38930;52.766;6.884;2023-04-25T13:23:37;10.50;99.90
53045;DHT22;38930;52.766;6.884;2023-04-25T13:26:03;10.00;99.90
53045;DHT22;38930;52.766;6.884;2023-04-25T13:28:28;9.90;99.90
53045;DHT22;38930;52.766;6.884;2023-04-25T13:30:54;9.80;99.90
53045;DHT22;38930;52.766;6.884;2023-04-25T13:33:20;9.80;99.90
53045;DHT22;38930;52.766;6.884;2023-04-25T13:35:48;10.00;99.90
53045;DHT22;38930;52.766;6.884;2023-04-25T13:38:23;10.10;99.90
53045;DHT22;38930;52.766;6.884;2023-04-25T13:40:49;10.30;99.90
53045;DHT22;38930;52.766;6.884;2023-04-25T13:43:18;10.50;99.90
53045;DHT22;38930;52.766;6.884;2023-04-25T13:45:43;10.60;99.90
53045;DHT22;38930;52.766;6.884;2023-04-25T13:48:09;10.60;99.90
53045;DHT22;38930;52.766;6.884;2023-04-25T13:50:35;10.70;99.90
53045;DHT22;38930;52.766;6.884;2023-04-25T13:53:00;10.70;99.90
53045;DHT22;38930;52.766;6.884;2023-04-25T13:55:26;10.70;99.90
53045;DHT22;38930;52.766;6.884;2023-04-25T13:57:52;10.50;99.90
53045;DHT22;38930;52.766;6.884;2023-04-25T14:00:17;10.50;99.90
53045;DHT22;38930;52.766;6.884;2023-04-25T14:02:43;10.60;99.90
53045;DHT22;38930;52.766;6.884;2023-04-25T14:05:09;10.60;99.90
53045;DHT22;38930;52.766;6.884;2023-04-25T14:07:35;10.90;99.90
53045;DHT22;38930;52.766;6.884;2023-04-25T14:10:01;11.70;99.90
53045;DHT22;38930;52.766;6.884;2023-04-25T14:12:27;11.40;99.90
53045;DHT22;38930;52.766;6.884;2023-04-25T14:14:52;11.20;99.90
53045;DHT22;38930;52.766;6.884;2023-04-25T14:17:21;10.80;99.90
53045;DHT22;38930;52.766;6.884;2023-04-25T14:19:47;10.50;99.90
53045;DHT22;38930;52.766;6.884;2023-04-25T14:22:14;9.90;99.90
53045;DHT22;38930;52.766;6.884;2023-04-25T14:24:41;9.50;99.90
53045;DHT22;38930;52.766;6.884;2023-04-25T14:27:07;9.30;99.90
53045;DHT22;38930;52.766;6.884;2023-04-25T14:29:32;9.30;99.90
53045;DHT22;38930;52.766;6.884;2023-04-25T14:31:58;9.70;99.90
53045;DHT22;38930;52.766;6.884;2023-04-25T14:34:24;9.70;99.90
53045;DHT22;38930;52.766;6.884;2023-04-25T14:36:51;9.90;99.90
53045;DHT22;38930;52.766;6.884;2023-04-25T14:39:17;9.80;99.90
53045;DHT22;38930;52.766;6.884;2023-04-25T14:41:43;10.10;99.90
53045;DHT22;38930;52.766;6.884;2023-04-25T14:44:09;10.40;99.90
53045;DHT22;38930;52.766;6.884;2023-04-25T14:46:36;10.40;99.90
53045;DHT22;38930;52.766;6.884;2023-04-25T14:49:02;10.60;99.90
53045;DHT22;38930;52.766;6.884;2023-04-25T14:51:28;10.70;99.90
53045;DHT22;38930;52.766;6.884;2023-04-25T14:53:54;10.50;99.90
53045;DHT22;38930;52.766;6.884;2023-04-25T14:56:19;10.30;99.90
53045;DHT22;38930;52.766;6.884;2023-04-25T14:58:45;10.30;99.90
53045;DHT22;38930;52.766;6.884;2023-04-25T15:01:11;10.30;99.90
53045;DHT22;38930;52.766;6.884;2023-04-25T15:03:39;10.50;99.90
53045;DHT22;38930;52.766;6.884;2023-04-25T15:06:05;10.70;99.90
53045;DHT22;38930;52.766;6.884;2023-04-25T15:08:31;10.40;99.90
53045;DHT22;38930;52.766;6.884;2023-04-25T15:10:58;10.50;99.90
53045;DHT22;38930;52.766;6.884;2023-04-25T15:13:24;10.50;99.90
53045;DHT22;38930;52.766;6.884;2023-04-25T15:15:50;10.40;99.90
53045;DHT22;38930;52.766;6.884;2023-04-25T15:18:20;10.70;99.90
53045;DHT22;38930;52.766;6.884;2023-04-25T15:20:50;10.50;99.90
53045;DHT22;38930;52.766;6.884;2023-04-25T15:23:17;10.50;99.90
53045;DHT22;38930;52.766;6.884;2023-04-25T15:25:42;10.40;99.90
53045;DHT22;38930;52.766;6.884;2023-04-25T15:28:08;10.20;99.90
53045;DHT22;38930;52.766;6.884;2023-04-25T15:30:34;10.10;99.90
53045;DHT22;38930;52.766;6.884;2023-04-25T15:32:59;10.10;99.90
53045;DHT22;38930;52.766;6.884;2023-04-25T15:36:00;9.90;99.90
53045;DHT22;38930;52.766;6.884;2023-04-25T15:38:33;10.10;99.90
53045;DHT22;38930;52.766;6.884;2023-04-25T15:40:58;10.30;99.90
53045;DHT22;38930;52.766;6.884;2023-04-25T15:43:24;10.20;99.90
53045;DHT22;38930;52.766;6.884;2023-04-25T15:45:50;10.10;99.90
53045;DHT22;38930;52.766;6.884;2023-04-25T15:48:16;10.10;99.90
53045;DHT22;38930;52.766;6.884;2023-04-25T15:50:42;10.10;99.90
53045;DHT22;38930;52.766;6.884;2023-04-25T15:53:07;10.00;99.90